Time;durP1;ratioP1;P1;durP2;ratioP2;P2;SDS_P1;SDS_P2;PMS_P1;PMS_P2;Temp;Humidity;BMP_temperature;BMP_pressure;BME280_temperature;BME280_humidity;BME280_pressure;Samples;Min_cycle;Max_cycle;Signal;HPM_P1;HPM_P2
2023/06/27 00:00:53;;;;;;;15.90;9.95;;;512.20;2380.80;;;;;;5073975;28;20035;-77
2023/06/27 00:03:19;;;;;;;13.23;10.45;;;512.40;2380.80;;;;;;5073577;28;20025;-77
2023/06/27 00:05:46;;;;;;;14.63;10.80;;;512.60;2380.80;;;;;;5071588;28;20072;-80
2023/06/27 00:08:12;;;;;;;12.88;10.30;;;512.40;2380.80;;;;;;5073438;28;20028;-78
2023/06/27 00:10:38;;;;;;;12.32;10.05;;;512.50;2380.80;;;;;;5072162;28;20029;-78
2023/06/27 00:13:04;;;;;;;16.10;10.85;;;512.30;2380.80;;;;;;5071713;28;20131;-78
2023/06/27 00:15:34;;;;;;;12.98;9.95;;;512.30;2380.80;;;;;;5072203;28;20028;-78
2023/06/27 00:18:00;;;;;;;11.48;10.27;;;512.30;2380.80;;;;;;5074995;28;20043;-79
2023/06/27 00:20:28;;;;;;;13.65;10.43;;;512.40;2380.80;;;;;;5075502;28;20028;-77
2023/06/27 00:22:53;;;;;;;12.20;10.48;;;512.40;2380.80;;;;;;5075952;28;20024;-78
2023/06/27 00:25:19;;;;;;;13.25;10.20;;;512.30;2380.80;;;;;;5075853;28;20078;-80
2023/06/27 00:27:45;;;;;;;13.07;10.27;;;;;;;;;;5076821;28;20460;-77
2023/06/27 00:30:12;;;;;;;15.00;10.30;;;;;;;;;;5080566;28;20071;-78
2023/06/27 00:32:38;;;;;;;14.70;10.27;;;;;;;;;;5077079;28;20024;-78
2023/06/27 00:35:04;;;;;;;12.23;9.90;;;;;;;;;;5076577;28;20021;-78
2023/06/27 00:37:30;;;;;;;13.73;10.73;;;;;;;;;;5092359;28;20049;-79
2023/06/27 00:39:56;;;;;;;11.60;9.80;;;;;;;;;;5091943;28;20028;-79
2023/06/27 00:42:22;;;;;;;11.95;10.32;;;;;;;;;;5092192;28;20059;-79
2023/06/27 00:44:48;;;;;;;17.45;11.25;;;487.30;2380.80;;;;;;5092118;28;20027;-80
2023/06/27 00:47:14;;;;;;;12.15;9.30;;;512.00;2380.80;;;;;;5091871;28;20024;-78
2023/06/27 00:49:41;;;;;;;11.93;9.70;;;512.00;2380.80;;;;;;5092103;28;20029;-79
2023/06/27 00:52:07;;;;;;;13.15;10.00;;;487.30;2380.80;;;;;;5092063;28;20033;-79
2023/06/27 00:54:34;;;;;;;12.15;10.23;;;487.30;2380.80;;;;;;5076125;28;20017;-79
2023/06/27 00:57:01;;;;;;;12.43;9.63;;;487.30;2380.80;;;;;;5092013;28;20020;-79
2023/06/27 00:59:28;;;;;;;12.10;10.15;;;487.30;2380.80;;;;;;5112434;28;20039;-79
2023/06/27 01:01:53;;;;;;;17.10;10.50;;;487.30;2380.80;;;;;;5094848;28;20028;-79
2023/06/27 01:04:19;;;;;;;13.82;9.88;;;487.30;2380.80;;;;;;5096868;28;20414;-80
2023/06/27 01:07:09;;;;;;;11.75;10.43;;;487.30;2380.80;;;;;;5112052;28;20056;-79
2023/06/27 01:09:48;;;;;;;13.05;10.15;;;487.20;2380.80;;;;;;5094791;28;20483;-79
2023/06/27 01:12:26;;;;;;;11.55;9.45;;;487.10;2380.80;;;;;;5095126;28;20120;-78
2023/06/27 01:14:56;;;;;;;12.00;10.80;;;487.10;2380.80;;;;;;5096116;28;20028;-77
2023/06/27 01:17:23;;;;;;;14.00;10.38;;;487.00;2380.80;;;;;;5094952;28;20056;-79
2023/06/27 01:19:52;;;;;;;12.32;10.25;;;487.10;2380.80;;;;;;5096202;28;20468;-78
2023/06/27 01:22:28;;;;;;;15.88;10.57;;;487.00;2380.80;;;;;;5095897;28;20016;-79
2023/06/27 01:24:55;;;;;;;12.75;10.05;;;487.00;2380.80;;;;;;5094948;28;20028;-78
2023/06/27 01:27:22;;;;;;;14.32;10.75;;;487.00;2380.80;;;;;;5096380;28;20430;-79
2023/06/27 01:29:48;;;;;;;15.70;11.35;;;487.00;2380.80;;;;;;5093579;28;20468;-79
2023/06/27 01:32:32;;;;;;;12.70;10.20;;;487.00;2380.80;;;;;;5094698;28;20024;-78
2023/06/27 01:35:12;;;;;;;13.75;10.38;;;487.00;2380.80;;;;;;5094651;28;20031;-78
2023/06/27 01:37:43;;;;;;;14.57;10.82;;;487.00;2380.80;;;;;;5095626;28;20031;-78
2023/06/27 01:40:13;;;;;;;13.48;11.23;;;487.00;2380.80;;;;;;5094395;28;20060;-77
2023/06/27 01:42:44;;;;;;;11.70;9.80;;;486.80;2380.80;;;;;;5094425;28;20074;-78
2023/06/27 01:45:11;;;;;;;15.55;11.48;;;486.90;2380.80;;;;;;5111294;28;20131;-79
2023/06/27 01:47:42;;;;;;;13.80;10.18;;;487.00;2380.80;;;;;;5095670;28;20028;-78
2023/06/27 01:50:09;;;;;;;13.65;10.20;;;487.00;2380.80;;;;;;5095108;28;20035;-79
2023/06/27 01:52:35;;;;;;;12.00;10.27;;;487.00;2380.80;;;;;;5094248;28;20110;-81
2023/06/27 01:55:02;;;;;;;12.50;9.88;;;487.00;2380.80;;;;;;5095355;28;20052;-80
2023/06/27 01:57:28;;;;;;;13.45;10.45;;;487.00;2380.80;;;;;;5111001;28;20028;-79
2023/06/27 01:59:54;;;;;;;13.35;10.75;;;486.90;2380.80;;;;;;5094500;28;20051;-80
2023/06/27 02:02:20;;;;;;;13.77;10.25;;;486.90;2380.80;;;;;;5094280;28;20460;-79
2023/06/27 02:04:47;;;;;;;12.63;10.68;;;486.80;2380.80;;;;;;5093989;28;20024;-80
2023/06/27 02:07:12;;;;;;;17.13;10.27;;;486.80;2380.80;;;;;;5095303;28;20052;-79
2023/06/27 02:09:38;;;;;;;15.23;10.40;;;486.80;2380.80;;;;;;5093832;28;20031;-79
2023/06/27 02:12:05;;;;;;;12.60;10.80;;;486.50;2380.80;;;;;;5094957;28;20047;-78
2023/06/27 02:14:31;;;;;;;11.57;9.98;;;486.60;2380.80;;;;;;5093841;28;20048;-78
2023/06/27 02:16:57;;;;;;;15.15;10.60;;;486.60;2380.80;;;;;;5111006;28;20085;-78
2023/06/27 02:19:23;;;;;;;14.85;10.98;;;486.60;2380.80;;;;;;5094787;28;20536;-79
2023/06/27 02:21:49;;;;;;;14.98;10.82;;;486.60;2380.80;;;;;;5093748;28;20066;-78
2023/06/27 02:24:16;;;;;;;14.10;11.32;;;486.70;2380.80;;;;;;5093797;28;20029;-79
2023/06/27 02:26:43;;;;;;;16.15;10.43;;;486.70;2380.80;;;;;;5093561;28;20049;-78
2023/06/27 02:29:09;;;;;;;15.77;10.68;;;486.50;2380.80;;;;;;5094575;28;20384;-79
2023/06/27 02:31:35;;;;;;;15.95;11.13;;;486.60;2380.80;;;;;;5093301;28;20032;-80
2023/06/27 02:34:01;;;;;;;13.95;10.45;;;486.60;2380.80;;;;;;5093239;28;20020;-79
2023/06/27 02:36:27;;;;;;;13.07;11.38;;;486.60;2380.80;;;;;;5093559;28;20042;-80
2023/06/27 02:38:56;;;;;;;13.40;11.60;;;486.40;2380.80;;;;;;5093082;28;20028;-79
2023/06/27 02:41:23;;;;;;;15.90;11.63;;;486.50;2380.80;;;;;;5093288;28;20055;-78
2023/06/27 02:43:50;;;;;;;13.05;10.25;;;486.40;2380.80;;;;;;5093447;28;20028;-78
2023/06/27 02:46:16;;;;;;;16.80;11.40;;;486.50;2380.80;;;;;;5093145;28;20031;-80
2023/06/27 02:48:42;;;;;;;12.43;10.32;;;486.50;2380.80;;;;;;5093272;28;20032;-79
2023/06/27 02:51:08;;;;;;;13.27;11.23;;;486.50;2380.80;;;;;;5093276;28;20035;-78
2023/06/27 02:53:34;;;;;;;15.00;9.98;;;486.40;2380.80;;;;;;5094499;28;20032;-79
2023/06/27 02:56:02;;;;;;;12.90;10.75;;;486.50;2380.80;;;;;;5095146;28;20078;-79
2023/06/27 02:58:32;;;;;;;14.45;10.38;;;486.50;2380.80;;;;;;5085319;28;20127;-80
2023/06/27 03:01:06;;;;;;;11.95;10.32;;;461.70;2380.80;;;;;;5080601;28;20028;-79
2023/06/27 03:03:33;;;;;;;14.20;12.05;;;486.40;2380.80;;;;;;5072893;28;20033;-78
2023/06/27 03:06:03;;;;;;;12.85;11.55;;;486.40;2380.80;;;;;;5074049;28;20099;-78
2023/06/27 03:08:32;;;;;;;13.00;10.40;;;461.70;2380.80;;;;;;5072507;28;20594;-80
2023/06/27 03:10:59;;;;;;;14.85;11.75;;;461.60;2380.80;;;;;;5072526;28;20421;-78
2023/06/27 03:13:25;;;;;;;13.88;11.75;;;461.60;2380.80;;;;;;5072711;28;20070;-80
2023/06/27 03:15:51;;;;;;;16.63;10.63;;;461.50;2380.80;;;;;;5073849;28;20464;-81
2023/06/27 03:18:17;;;;;;;15.45;10.68;;;461.60;2380.80;;;;;;5074553;28;20403;-77
2023/06/27 03:20:42;;;;;;;13.93;11.77;;;461.70;2380.80;;;;;;5088407;28;20028;-77
2023/06/27 03:23:08;;;;;;;12.43;10.35;;;486.40;2380.80;;;;;;5082208;28;20024;-79
2023/06/27 03:25:34;;;;;;;16.40;10.75;;;486.40;2380.80;;;;;;5072556;28;20066;-78
2023/06/27 03:28:02;;;;;;;15.73;10.88;;;486.40;2380.80;;;;;;5072120;28;20481;-79
2023/06/27 03:30:27;;;;;;;13.02;10.98;;;486.40;2380.80;;;;;;5072505;28;20369;-78
2023/06/27 03:32:53;;;;;;;18.85;12.15;;;486.50;2380.80;;;;;;5072346;28;20021;-78
2023/06/27 03:35:19;;;;;;;13.32;11.00;;;486.40;2380.80;;;;;;5071996;28;20030;-79
2023/06/27 03:37:45;;;;;;;12.90;10.93;;;486.50;2380.80;;;;;;5072369;28;20028;-77
2023/06/27 03:40:11;;;;;;;14.70;10.52;;;486.50;2380.80;;;;;;5072364;28;20051;-78
2023/06/27 03:42:37;;;;;;;15.25;11.43;;;486.40;2380.80;;;;;;5073507;28;20036;-77
2023/06/27 03:45:03;;;;;;;14.90;11.23;;;461.70;2380.80;;;;;;5072405;28;20024;-78
2023/06/27 03:47:29;;;;;;;13.55;11.40;;;461.70;2380.80;;;;;;5072209;28;20058;-78
2023/06/27 03:49:55;;;;;;;12.25;10.93;;;461.70;2380.80;;;;;;5071907;28;20024;-78
2023/06/27 03:52:21;;;;;;;14.93;11.57;;;486.40;2380.80;;;;;;5073975;28;20036;-77
2023/06/27 03:54:47;;;;;;;13.90;10.82;;;486.40;2380.80;;;;;;5076362;28;20074;-78
2023/06/27 03:57:13;;;;;;;16.17;10.63;;;461.70;2380.80;;;;;;5075513;28;20760;-78
2023/06/27 03:59:38;;;;;;;13.32;10.88;;;486.40;2380.80;;;;;;5077356;28;20048;-77
2023/06/27 04:02:05;;;;;;;14.43;10.77;;;461.70;2380.80;;;;;;5076186;28;20529;-80
2023/06/27 04:04:30;;;;;;;15.55;10.55;;;461.70;2380.80;;;;;;5075703;28;20032;-78
2023/06/27 04:06:56;;;;;;;11.23;10.05;;;461.70;2380.80;;;;;;5076982;28;20101;-77
2023/06/27 04:09:22;;;;;;;12.35;10.13;;;461.50;2380.80;;;;;;5092548;28;20400;-78
2023/06/27 04:11:47;;;;;;;15.93;11.82;;;461.70;2380.80;;;;;;5075739;28;20047;-77
2023/06/27 04:14:17;;;;;;;16.98;10.43;;;461.70;2380.80;;;;;;5075834;28;20025;-76
2023/06/27 04:16:44;;;;;;;14.80;10.02;;;486.40;2380.80;;;;;;5076944;28;20444;-77
2023/06/27 04:19:09;;;;;;;16.30;10.70;;;486.50;2380.80;;;;;;5077022;28;20048;-77
2023/06/27 04:21:35;;;;;;;12.38;10.70;;;486.60;2380.80;;;;;;5075751;28;20457;-76
2023/06/27 04:24:01;;;;;;;14.48;10.77;;;486.60;2380.80;;;;;;5075396;28;20488;-78
2023/06/27 04:26:27;;;;;;;12.82;10.57;;;486.60;2380.80;;;;;;5077376;28;20021;-78
2023/06/27 04:28:53;;;;;;;14.90;10.43;;;486.70;2380.80;;;;;;5075661;28;20465;-78
2023/06/27 04:31:18;;;;;;;13.70;10.68;;;486.80;2380.80;;;;;;5095362;28;20476;-78
2023/06/27 04:33:44;;;;;;;15.80;11.35;;;486.90;2380.80;;;;;;5095873;28;20064;-78
2023/06/27 04:36:10;;;;;;;13.07;10.20;;;486.90;2380.80;;;;;;5095780;28;20073;-80
2023/06/27 04:38:40;;;;;;;13.85;10.27;;;487.00;2380.80;;;;;;5095461;28;20464;-78
2023/06/27 04:41:07;;;;;;;12.85;9.65;;;487.10;2380.80;;;;;;5095627;28;20030;-79
2023/06/27 04:43:33;;;;;;;12.05;10.18;;;487.10;2380.80;;;;;;5095701;28;20455;-78
2023/06/27 04:45:59;;;;;;;12.02;10.50;;;487.20;2380.80;;;;;;5096645;28;20024;-79
2023/06/27 04:48:26;;;;;;;14.02;10.40;;;487.20;2380.80;;;;;;5096752;28;20055;-79
2023/06/27 04:50:52;;;;;;;17.90;10.95;;;487.20;2380.80;;;;;;5095539;28;20096;-78
2023/06/27 04:53:19;;;;;;;18.58;11.98;;;487.20;2380.80;;;;;;5095298;28;20527;-77
2023/06/27 04:55:46;;;;;;;15.27;11.25;;;487.20;2380.80;;;;;;5095482;28;20049;-77
2023/06/27 04:58:12;;;;;;;16.98;11.30;;;487.20;2380.80;;;;;;5096567;28;20020;-78
2023/06/27 05:00:38;;;;;;;16.92;11.10;;;487.20;2380.80;;;;;;5095104;28;20047;-78
2023/06/27 05:03:04;;;;;;;16.15;11.00;;;487.30;2380.80;;;;;;5095014;28;20464;-78
2023/06/27 05:05:33;;;;;;;16.00;10.30;;;487.30;2380.80;;;;;;5093907;28;20111;-77
2023/06/27 05:08:06;;;;;;;14.48;11.00;;;512.10;2380.80;;;;;;5094930;28;20028;-78
2023/06/27 05:10:33;;;;;;;13.38;10.27;;;512.20;2380.80;;;;;;5096144;28;20043;-78
2023/06/27 05:12:59;;;;;;;14.80;10.68;;;512.30;2380.80;;;;;;5094831;28;20032;-78
2023/06/27 05:15:25;;;;;;;12.45;11.07;;;512.30;2380.80;;;;;;5095076;28;20509;-78
2023/06/27 05:18:15;;;;;;;15.13;10.75;;;512.20;2380.80;;;;;;5095162;28;20033;-78
2023/06/27 05:20:42;;;;;;;11.80;9.85;;;512.20;2380.80;;;;;;5094536;28;20422;-78
2023/06/27 05:23:08;;;;;;;11.70;9.57;;;512.40;2380.80;;;;;;5094884;28;20024;-78
2023/06/27 05:25:34;;;;;;;11.73;10.20;;;512.60;2380.80;;;;;;5095795;28;20082;-77
2023/06/27 05:28:00;;;;;;;17.10;10.18;;;512.60;2380.80;;;;;;5095550;28;20019;-76
2023/06/27 05:30:27;;;;;;;11.82;9.45;;;512.80;2380.80;;;;;;5095951;28;20062;-78
2023/06/27 05:32:54;;;;;;;13.10;10.00;;;512.90;2380.80;;;;;;5096073;28;20055;-78
2023/06/27 05:35:20;;;;;;;13.55;9.70;;;512.80;2380.80;;;;;;5094302;28;20031;-79
2023/06/27 05:37:46;;;;;;;13.48;10.60;;;512.90;2380.80;;;;;;5094695;28;20024;-76
2023/06/27 05:40:12;;;;;;;12.65;10.02;;;537.70;2406.40;;;;;;5094551;28;20036;-76
2023/06/27 05:42:38;;;;;;;14.48;10.05;;;537.70;2406.40;;;;;;5095787;28;20345;-76
2023/06/27 05:45:05;;;;;;;11.70;9.82;;;537.70;2406.40;;;;;;5095453;28;20020;-78
2023/06/27 05:47:31;;;;;;;12.57;10.55;;;537.70;2406.40;;;;;;5094445;28;20020;-76
2023/06/27 05:49:56;;;;;;;13.15;10.48;;;537.80;2406.40;;;;;;5093957;28;20036;-77
2023/06/27 05:52:22;;;;;;;17.63;11.25;;;537.80;2406.40;;;;;;5094228;28;20126;-75
2023/06/27 05:54:49;;;;;;;13.65;10.30;;;538.00;2406.40;;;;;;5094064;28;20447;-78
2023/06/27 05:57:15;;;;;;;11.52;10.18;;;538.00;2406.40;;;;;;5094514;28;20020;-77
2023/06/27 05:59:40;;;;;;;11.35;9.65;;;538.10;2406.40;;;;;;5094375;28;20116;-77
2023/06/27 06:02:06;;;;;;;21.27;10.70;;;538.10;2406.40;;;;;;5093926;28;20028;-78
2023/06/27 06:04:32;;;;;;;15.57;10.10;;;538.40;2406.40;;;;;;5094004;28;20046;-77
2023/06/27 06:06:58;;;;;;;14.32;10.02;;;563.20;2432.00;;;;;;5093848;28;20131;-77
2023/06/27 06:09:25;;;;;;;15.82;9.95;;;563.30;2432.00;;;;;;5094894;28;20027;-78
2023/06/27 06:11:51;;;;;;;18.75;11.68;;;563.50;2432.00;;;;;;5095585;28;20034;-76
2023/06/27 06:14:16;;;;;;;10.93;9.77;;;563.60;2432.00;;;;;;5094679;28;20099;-76
2023/06/27 06:16:42;;;;;;;14.50;10.15;;;563.60;2432.00;;;;;;5092918;28;20130;-76
2023/06/27 06:19:08;;;;;;;15.52;9.73;;;563.50;2432.00;;;;;;5093785;28;20029;-76
2023/06/27 06:21:34;;;;;;;12.75;10.05;;;563.40;2432.00;;;;;;5093632;28;20503;-78
2023/06/27 06:24:01;;;;;;;11.88;9.10;;;563.50;2432.00;;;;;;5094626;28;20056;-75
2023/06/27 06:26:27;;;;;;;14.15;10.43;;;563.60;2432.00;;;;;;5094869;28;20463;-76
2023/06/27 06:28:53;;;;;;;14.70;10.25;;;563.60;2432.00;;;;;;5093419;28;20026;-78
2023/06/27 06:31:20;;;;;;;12.73;9.95;;;563.80;2432.00;;;;;;5092861;28;20137;-77
2023/06/27 06:33:48;;;;;;;15.50;10.15;;;563.90;2432.00;;;;;;5093681;28;20031;-75
2023/06/27 06:36:14;;;;;;;12.70;10.63;;;564.10;2432.00;;;;;;5093857;28;20028;-74
2023/06/27 06:38:40;;;;;;;12.48;9.88;;;588.90;2432.00;;;;;;5093945;28;20464;-76
2023/06/27 06:41:06;;;;;;;17.00;10.00;;;589.10;2432.00;;;;;;5095475;28;20031;-77
2023/06/27 06:43:32;;;;;;;11.82;8.77;;;589.20;2432.00;;;;;;5093768;28;20028;-77
2023/06/27 06:45:58;;;;;;;10.13;8.35;;;589.20;2432.00;;;;;;5094076;28;20115;-76
2023/06/27 06:48:24;;;;;;;13.27;8.50;;;589.40;2432.00;;;;;;5094041;28;20089;-77
2023/06/27 06:50:52;;;;;;;13.40;8.70;;;589.30;2432.00;;;;;;5092794;28;20535;-77
2023/06/27 06:53:19;;;;;;;11.40;9.68;;;589.10;2432.00;;;;;;5094009;28;20024;-75
2023/06/27 06:55:45;;;;;;;10.38;8.50;;;589.10;2432.00;;;;;;5092538;28;20020;-77
2023/06/27 06:58:10;;;;;;;10.73;9.20;;;589.10;2432.00;;;;;;5093593;28;20478;-76
2023/06/27 07:00:36;;;;;;;10.10;8.88;;;589.30;2432.00;;;;;;5093744;28;20047;-78
2023/06/27 07:03:08;;;;;;;10.60;8.77;;;589.60;2432.00;;;;;;5092807;28;20050;-76
2023/06/27 07:05:38;;;;;;;12.30;9.07;;;589.60;2432.00;;;;;;5093569;28;20061;-76
2023/06/27 07:08:04;;;;;;;10.13;8.85;;;614.40;2432.00;;;;;;5092837;28;20480;-79
2023/06/27 07:10:31;;;;;;;11.52;8.30;;;614.50;2432.00;;;;;;5094329;28;20054;-75
2023/06/27 07:12:57;;;;;;;11.82;9.13;;;614.70;2432.00;;;;;;5096531;28;20020;-79
2023/06/27 07:15:23;;;;;;;13.18;9.23;;;614.80;2432.00;;;;;;5092883;28;20165;-79
2023/06/27 07:17:52;;;;;;;11.48;8.88;;;614.80;2432.00;;;;;;5092653;28;20020;-80
2023/06/27 07:20:25;;;;;;;10.05;8.82;;;614.80;2432.00;;;;;;5092380;28;20101;-82
2023/06/27 07:22:51;;;;;;;;;;;615.00;2432.00;;;;;;5092011;28;20380;-79
2023/06/27 07:25:18;;;;;;;11.32;9.10;;;615.20;2432.00;;;;;;5092614;28;19919;-81
2023/06/27 07:27:45;;;;;;;16.38;8.80;;;640.00;2432.00;;;;;;5092515;28;20020;-79
2023/06/27 07:30:11;;;;;;;10.65;9.52;;;640.20;2432.00;;;;;;5090353;28;20050;-78
2023/06/27 07:32:37;;;;;;;10.20;9.10;;;640.40;2432.00;;;;;;5092260;28;20101;-79
2023/06/27 07:35:06;;;;;;;9.30;7.97;;;640.50;2432.00;;;;;;5093753;28;20447;-78
2023/06/27 07:37:32;;;;;;;9.55;7.50;;;640.60;2432.00;;;;;;5092792;28;20448;-79
2023/06/27 07:39:58;;;;;;;10.00;8.77;;;640.60;2432.00;;;;;;5092052;28;20028;-81
2023/06/27 07:42:25;;;;;;;10.30;8.27;;;640.90;2432.00;;;;;;5090710;28;20055;-78
2023/06/27 07:44:51;;;;;;;8.95;7.90;;;665.60;2432.00;;;;;;5092354;28;20441;-78
2023/06/27 07:47:17;;;;;;;13.10;9.05;;;665.90;2432.00;;;;;;5091953;28;20077;-78
2023/06/27 07:49:43;;;;;;;9.75;7.90;;;665.90;2432.00;;;;;;5092285;28;20455;-82
2023/06/27 07:52:12;;;;;;;9.55;7.38;;;665.70;2432.00;;;;;;5092345;28;20039;-80
2023/06/27 07:54:38;;;;;;;16.83;8.52;;;665.70;2432.00;;;;;;5091893;28;20486;-80
2023/06/27 07:57:05;;;;;;;10.02;8.57;;;665.90;2432.00;;;;;;5092231;28;20016;-80
2023/06/27 07:59:31;;;;;;;11.63;8.80;;;665.80;2432.00;;;;;;5093138;28;20028;-79
2023/06/27 08:01:57;;;;;;;10.77;7.55;;;665.80;2432.00;;;;;;5091907;28;20054;-80
2023/06/27 08:04:23;;;;;;;13.63;9.85;;;665.80;2432.00;;;;;;5092204;28;20055;-79
2023/06/27 08:06:49;;;;;;;8.55;7.65;;;665.70;2432.00;;;;;;5091694;28;20131;-80
2023/06/27 08:09:14;;;;;;;12.63;7.80;;;665.90;2432.00;;;;;;5091749;28;20024;-82
2023/06/27 08:11:40;;;;;;;9.55;7.35;;;666.20;2432.00;;;;;;5092179;28;20032;-80
2023/06/27 08:14:06;;;;;;;10.35;7.80;;;666.30;2432.00;;;;;;5093153;28;20508;-80
2023/06/27 08:16:35;;;;;;;8.35;7.55;;;666.50;2432.00;;;;;;5092786;28;20039;-81
2023/06/27 08:19:01;;;;;;;14.32;8.50;;;666.30;2432.00;;;;;;5092148;28;20035;-80
2023/06/27 08:21:27;;;;;;;9.07;7.00;;;691.20;2432.00;;;;;;5091591;28;20024;-79
2023/06/27 08:23:52;;;;;;;9.40;6.78;;;666.50;2432.00;;;;;;5091240;28;20024;-80
2023/06/27 08:26:19;;;;;;;10.48;8.75;;;691.20;2432.00;;;;;;5091577;28;20452;-82
2023/06/27 08:28:45;;;;;;;10.93;7.57;;;691.50;2432.00;;;;;;5092231;28;20024;-77
2023/06/27 08:31:12;;;;;;;9.65;7.80;;;;;;;;;;5091508;28;20417;-81
2023/06/27 08:33:38;;;;;;;9.27;6.93;;;692.00;2432.00;;;;;;5091454;28;20020;-80
2023/06/27 08:36:04;;;;;;;8.68;6.43;;;692.00;2432.00;;;;;;5092371;28;20055;-77
2023/06/27 08:38:30;;;;;;;8.18;6.80;;;716.90;2432.00;;;;;;5092135;28;20056;-78
2023/06/27 08:40:56;;;;;;;12.13;7.40;;;717.00;2432.00;;;;;;5109441;28;20349;-76
2023/06/27 08:43:22;;;;;;;7.75;6.20;;;717.20;2432.00;;;;;;5094760;28;20020;-79
2023/06/27 08:45:51;;;;;;;9.15;6.70;;;717.40;2406.40;;;;;;5095155;28;20020;-78
2023/06/27 08:48:17;;;;;;;10.85;6.57;;;717.40;2355.20;;;;;;5093605;28;20020;-78
2023/06/27 08:50:44;;;;;;;9.32;6.75;;;717.10;2355.20;;;;;;5092531;28;20032;-78
2023/06/27 08:53:17;;;;;;;10.48;7.55;;;717.00;2380.80;;;;;;5094754;28;20062;-79
2023/06/27 08:56:04;;;;;;;10.82;7.32;;;717.10;2355.20;;;;;;5074973;28;20033;-79
2023/06/27 08:58:51;;;;;;;11.10;7.13;;;717.20;2355.20;;;;;;5076000;28;20524;-79
2023/06/27 09:01:18;;;;;;;7.90;6.03;;;717.40;2329.60;;;;;;5076053;28;20377;-79
2023/06/27 09:03:44;;;;;;;8.77;6.25;;;717.30;2355.20;;;;;;5074613;28;20028;-79
2023/06/27 09:06:12;;;;;;;7.88;6.10;;;717.40;2355.20;;;;;;5074469;28;20048;-78
2023/06/27 09:08:39;;;;;;;7.75;6.47;;;717.50;2355.20;;;;;;5074443;28;20170;-79
2023/06/27 09:11:08;;;;;;;10.45;8.02;;;717.70;2329.60;;;;;;5091500;28;20487;-79
2023/06/27 09:13:36;;;;;;;10.70;6.75;;;742.60;2329.60;;;;;;5074711;28;20067;-79
2023/06/27 09:16:04;;;;;;;11.70;6.82;;;742.80;2355.20;;;;;;5074666;28;20111;-77
2023/06/27 09:18:29;;;;;;;8.25;7.32;;;742.90;2329.60;;;;;;5074305;28;20135;-79
2023/06/27 09:20:56;;;;;;;7.03;6.00;;;742.90;2304.00;;;;;;5074342;28;20056;-80
2023/06/27 09:23:22;;;;;;;8.85;6.47;;;742.90;2329.60;;;;;;5076065;28;20028;-78
2023/06/27 09:26:09;;;;;;;10.82;9.50;;;742.90;2304.00;;;;;;5075293;28;20021;-83
2023/06/27 09:28:47;;;;;;;13.82;8.43;;;743.20;2278.40;;;;;;5074151;28;20413;-81
2023/06/27 09:31:13;;;;;;;6.47;5.22;;;743.20;2304.00;;;;;;5073981;28;20036;-79
2023/06/27 09:33:42;;;;;;;8.27;5.85;;;742.90;2252.80;;;;;;5074357;28;20491;-79
2023/06/27 09:36:09;;;;;;;7.70;5.82;;;742.70;2227.20;;;;;;5074125;28;20021;-80
2023/06/27 09:38:35;;;;;;;6.10;4.90;;;742.50;2252.80;;;;;;5074255;28;20024;-81
2023/06/27 09:41:05;;;;;;;5.90;4.35;;;717.50;2201.60;;;;;;5074097;28;20020;-80
2023/06/27 09:43:36;;;;;;;6.90;4.60;;;717.50;2201.60;;;;;;5075256;28;20024;-80
2023/06/27 09:46:04;;;;;;;8.43;4.43;;;717.40;2201.60;;;;;;5073711;28;20021;-78
2023/06/27 09:48:30;;;;;;;7.15;4.85;;;717.30;2227.20;;;;;;5080567;28;20061;-80
2023/06/27 09:51:01;;;;;;;6.63;4.38;;;717.50;2227.20;;;;;;5084294;28;20032;-80
2023/06/27 09:53:29;;;;;;;8.35;6.13;;;717.70;2176.00;;;;;;5093904;28;20031;-79
2023/06/27 09:55:59;;;;;;;7.70;6.30;;;742.60;2227.20;;;;;;5094079;28;20020;-82
2023/06/27 09:58:32;;;;;;;7.28;4.60;;;742.90;2176.00;;;;;;5093571;28;20070;-80
2023/06/27 10:01:07;;;;;;;5.43;4.03;;;742.80;2150.40;;;;;;5093930;28;20059;-80
2023/06/27 10:03:34;;;;;;;6.35;5.22;;;742.90;2099.20;;;;;;5093936;28;20028;-79
2023/06/27 10:06:02;;;;;;;11.45;8.13;;;743.20;2099.20;;;;;;5093970;28;20136;-81
2023/06/27 10:08:28;;;;;;;7.40;5.43;;;768.20;2099.20;;;;;;5093798;28;20418;-84
2023/06/27 10:10:57;;;;;;;6.63;5.18;;;768.40;2048.00;;;;;;5093468;28;20032;-83
2023/06/27 10:13:24;;;;;;;5.85;3.95;;;768.60;2048.00;;;;;;5093039;28;20054;-84
2023/06/27 10:15:50;;;;;;;6.70;4.90;;;768.20;2048.00;;;;;;5094632;28;20027;-84
2023/06/27 10:18:15;;;;;;;6.53;5.82;;;768.00;2073.60;;;;;;5094569;28;20024;-82
2023/06/27 10:20:42;;;;;;;7.80;5.20;;;768.60;2073.60;;;;;;5094731;28;20448;-81
2023/06/27 10:23:09;;;;;;;7.13;4.88;;;768.80;2048.00;;;;;;5095184;28;20077;-81
2023/06/27 10:25:35;;;;;;;7.15;4.60;;;793.60;2022.40;;;;;;5094394;28;20381;-82
2023/06/27 10:28:06;;;;;;;10.55;6.38;;;793.80;2022.40;;;;;;5093704;28;20028;-82
2023/06/27 10:30:32;;;;;;;7.57;5.18;;;794.00;1996.80;;;;;;5092281;28;20042;-81
2023/06/27 10:33:22;;;;;;;5.65;4.03;;;794.20;1996.80;;;;;;5092933;28;20036;-80
2023/06/27 10:35:54;;;;;;;8.68;5.47;;;794.40;1945.60;;;;;;5093030;28;20024;-81
2023/06/27 10:38:20;;;;;;;5.82;4.50;;;794.50;1996.80;;;;;;5093097;28;20024;-81
2023/06/27 10:40:58;;;;;;;5.70;4.10;;;819.30;1996.80;;;;;;5093288;28;20025;-81
2023/06/27 10:43:40;;;;;;;6.97;4.90;;;819.20;1945.60;;;;;;5092923;28;20024;-80
2023/06/27 10:46:06;;;;;;;8.73;5.28;;;819.50;1971.20;;;;;;5094314;28;20092;-80
2023/06/27 10:48:49;;;;;;;6.05;4.18;;;819.60;1920.00;;;;;;5113147;28;20027;-82
2023/06/27 10:51:20;;;;;;;7.03;5.30;;;819.90;1920.00;;;;;;5110467;28;20032;-80
2023/06/27 10:54:07;;;;;;;6.68;4.50;;;820.00;1920.00;;;;;;5104962;28;20142;-82
2023/06/27 10:56:41;;;;;;;5.53;4.53;;;820.10;1868.80;;;;;;5092756;28;20496;-82
2023/06/27 10:59:12;;;;;;;9.43;4.07;;;820.10;1868.80;;;;;;5092892;28;20054;-82
2023/06/27 11:01:52;;;;;;;7.27;4.50;;;819.40;1894.40;;;;;;5093722;28;20028;-82
2023/06/27 11:04:25;;;;;;;5.57;4.65;;;794.20;1945.60;;;;;;5093705;28;20027;-81
2023/06/27 11:07:01;;;;;;;6.18;4.60;;;794.00;1971.20;;;;;;5073989;28;20048;-81
2023/06/27 11:09:30;;;;;;;5.93;4.43;;;793.70;1971.20;;;;;;5072522;28;20036;-81
2023/06/27 11:12:15;;;;;;;5.95;4.03;;;768.80;1945.60;;;;;;5072154;28;20465;-80
2023/06/27 11:14:43;;;;;;;5.20;4.18;;;768.60;1996.80;;;;;;5079302;28;20024;-81
2023/06/27 11:17:10;;;;;;;5.85;4.40;;;768.60;1945.60;;;;;;5093255;28;20035;-80
2023/06/27 11:19:39;;;;;;;7.45;6.25;;;768.80;1971.20;;;;;;5093575;28;20024;-81
2023/06/27 11:22:06;;;;;;;8.65;4.90;;;793.90;1996.80;;;;;;5091992;28;20085;-81
2023/06/27 11:24:32;;;;;;;5.25;4.32;;;794.00;1996.80;;;;;;5091941;28;20023;-80
2023/06/27 11:27:00;;;;;;;6.75;4.30;;;793.80;2022.40;;;;;;5091979;28;20107;-81
2023/06/27 11:29:27;;;;;;;8.18;4.25;;;793.60;2022.40;;;;;;5092108;28;20360;-81
2023/06/27 11:31:55;;;;;;;6.90;4.68;;;793.90;1996.80;;;;;;5090802;28;20078;-80
2023/06/27 11:34:21;;;;;;;7.32;4.68;;;794.20;1971.20;;;;;;5108901;28;20036;-81
2023/06/27 11:36:47;;;;;;;7.55;5.85;;;794.50;1971.20;;;;;;5092829;28;20464;-81
2023/06/27 11:39:14;;;;;;;6.00;4.55;;;819.40;1945.60;;;;;;5092797;28;20451;-81
2023/06/27 11:41:41;;;;;;;8.23;4.57;;;819.60;1920.00;;;;;;5092294;28;20027;-82
2023/06/27 11:44:14;;;;;;;8.60;6.68;;;819.60;1868.80;;;;;;5092333;28;20028;-81
2023/06/27 11:46:54;;;;;;;6.72;5.65;;;820.00;1920.00;;;;;;5092191;28;20433;-81
2023/06/27 11:49:25;;;;;;;8.63;6.90;;;844.90;1945.60;;;;;;5092172;28;20123;-81
2023/06/27 11:51:51;;;;;;;6.78;5.10;;;845.10;1868.80;;;;;;5078104;28;20119;-79
2023/06/27 11:54:18;;;;;;;9.55;4.85;;;820.10;1792.00;;;;;;5109345;28;20024;-81
2023/06/27 11:56:44;;;;;;;10.95;4.95;;;819.80;1843.20;;;;;;5109212;28;20031;-82
2023/06/27 11:59:10;;;;;;;5.75;4.68;;;819.30;1868.80;;;;;;5073530;28;20029;-81
2023/06/27 12:01:44;;;;;;;5.50;4.43;;;819.30;1868.80;;;;;;5088927;28;20032;-81
2023/06/27 12:04:16;;;;;;;6.20;4.30;;;794.40;1920.00;;;;;;5089009;28;20371;-80
2023/06/27 12:06:44;;;;;;;7.30;5.07;;;794.00;1920.00;;;;;;5088282;28;20048;-79
2023/06/27 12:09:24;;;;;;;6.07;4.80;;;793.80;1971.20;;;;;;5088879;28;20036;-83
2023/06/27 12:11:56;;;;;;;6.15;4.57;;;793.70;1996.80;;;;;;5088859;28;20086;-79
2023/06/27 12:14:23;;;;;;;7.82;4.28;;;768.80;1996.80;;;;;;5090496;28;20123;-80